ACA766 CYYZ-KBOS
Flight info
| Callsign | ACA766 |
|---|---|
| Flight time | N/A |
| Altitude | 24000 |
| Route | BUF061021 PONCT JFUND2 |
| Aircraft | A320/M-SDE3FGHIRWY/LB1 |
Departure
| Time | N/A |
|---|---|
| Airport | Toronto Pearson International Airport (CYYZ) |
Arrival
| Time | 2026-05-07 00:28 |
|---|---|
| Airport | Boston Logan International Airport (KBOS) |
| Time | Latitude | Longitude | Altitude | Speed | Heading |
|---|---|---|---|---|---|
| 2026-05-07 00:11 | 42.64265 | -72.28737 | 20736 ft | 437 kts | 104° |
| 2026-05-07 00:11 | 42.63794 | -72.24710 | 20032 ft | 426 kts | 104° |
| 2026-05-07 00:11 | 42.63346 | -72.20752 | 19665 ft | 423 kts | 104° |
| 2026-05-07 00:11 | 42.62907 | -72.16815 | 19204 ft | 421 kts | 104° |
| 2026-05-07 00:12 | 42.62450 | -72.12894 | 18706 ft | 420 kts | 105° |
| 2026-05-07 00:12 | 42.61981 | -72.08983 | 18209 ft | 418 kts | 105° |
| 2026-05-07 00:12 | 42.61513 | -72.05101 | 17750 ft | 415 kts | 105° |
| 2026-05-07 00:12 | 42.61046 | -72.01249 | 17209 ft | 413 kts | 105° |
| 2026-05-07 00:13 | 42.60578 | -71.97454 | 16812 ft | 404 kts | 105° |
| 2026-05-07 00:13 | 42.60109 | -71.93694 | 16420 ft | 403 kts | 105° |
| 2026-05-07 00:13 | 42.59638 | -71.89949 | 15924 ft | 401 kts | 105° |
| 2026-05-07 00:13 | 42.59170 | -71.86239 | 15460 ft | 398 kts | 105° |
| 2026-05-07 00:14 | 42.58704 | -71.82535 | 14998 ft | 397 kts | 104° |
| 2026-05-07 00:14 | 42.58207 | -71.78873 | 14554 ft | 394 kts | 106° |
| 2026-05-07 00:14 | 42.57656 | -71.75249 | 14084 ft | 391 kts | 107° |
| 2026-05-07 00:14 | 42.57073 | -71.71665 | 13684 ft | 387 kts | 107° |
| 2026-05-07 00:15 | 42.56483 | -71.68116 | 13336 ft | 379 kts | 107° |
| 2026-05-07 00:15 | 42.55919 | -71.64687 | 12721 ft | 370 kts | 107° |
| 2026-05-07 00:15 | 42.55364 | -71.61290 | 12315 ft | 366 kts | 106° |
| 2026-05-07 00:15 | 42.54805 | -71.57925 | 11885 ft | 363 kts | 108° |
| 2026-05-07 00:16 | 42.54181 | -71.54635 | 11498 ft | 358 kts | 110° |
| 2026-05-07 00:16 | 42.53508 | -71.51407 | 11144 ft | 353 kts | 110° |
| 2026-05-07 00:16 | 42.52830 | -71.48267 | 10820 ft | 350 kts | 110° |
| 2026-05-07 00:16 | 42.52145 | -71.45112 | 10474 ft | 348 kts | 110° |
| 2026-05-07 00:17 | 42.51470 | -71.41971 | 10181 ft | 343 kts | 110° |
| 2026-05-07 00:17 | 42.50824 | -71.38918 | 10058 ft | 331 kts | 110° |
| 2026-05-07 00:17 | 42.50203 | -71.35946 | 9813 ft | 325 kts | 109° |
| 2026-05-07 00:17 | 42.49603 | -71.32996 | 9407 ft | 324 kts | 109° |
| 2026-05-07 00:18 | 42.49019 | -71.30060 | 8971 ft | 324 kts | 109° |
| 2026-05-07 00:18 | 42.48441 | -71.27154 | 8499 ft | 316 kts | 109° |
| 2026-05-07 00:18 | 42.47870 | -71.24284 | 8080 ft | 316 kts | 108° |
| 2026-05-07 00:18 | 42.47296 | -71.21409 | 7665 ft | 315 kts | 109° |
| 2026-05-07 00:19 | 42.46761 | -71.18540 | 7263 ft | 313 kts | 102° |
| 2026-05-07 00:19 | 42.46680 | -71.15653 | 6779 ft | 312 kts | 85° |
| 2026-05-07 00:19 | 42.47194 | -71.12809 | 6342 ft | 311 kts | 66° |
| 2026-05-07 00:19 | 42.48120 | -71.10262 | 6200 ft | 293 kts | 62° |
| 2026-05-07 00:20 | 42.49097 | -71.07915 | 6071 ft | 279 kts | 50° |
| 2026-05-07 00:20 | 42.50415 | -71.06096 | 5848 ft | 264 kts | 31° |
| 2026-05-07 00:20 | 42.51993 | -71.04925 | 5518 ft | 256 kts | 14° |
| 2026-05-07 00:20 | 42.53655 | -71.04115 | 5184 ft | 252 kts | 15° |
| 2026-05-07 00:21 | 42.55295 | -71.03305 | 4867 ft | 250 kts | 14° |
| 2026-05-07 00:21 | 42.56920 | -71.02489 | 4537 ft | 246 kts | 15° |
| 2026-05-07 00:21 | 42.58382 | -71.01279 | 4197 ft | 250 kts | 44° |
| 2026-05-07 00:21 | 42.59216 | -70.99244 | 3829 ft | 250 kts | 78° |
| 2026-05-07 00:22 | 42.59226 | -70.96907 | 3454 ft | 248 kts | 102° |
| 2026-05-07 00:22 | 42.58901 | -70.94614 | 3098 ft | 248 kts | 110° |
| 2026-05-07 00:22 | 42.58097 | -70.92709 | 2999 ft | 225 kts | 146° |
| 2026-05-07 00:22 | 42.56846 | -70.91659 | 2994 ft | 201 kts | 167° |
| 2026-05-07 00:23 | 42.55555 | -70.91340 | 3040 ft | 181 kts | 194° |
| 2026-05-07 00:23 | 42.54413 | -70.91854 | 3025 ft | 172 kts | 207° |
| 2026-05-07 00:23 | 42.53285 | -70.92381 | 3008 ft | 171 kts | 206° |
| 2026-05-07 00:23 | 42.52159 | -70.92914 | 2986 ft | 172 kts | 206° |
| 2026-05-07 00:24 | 42.51043 | -70.93449 | 2838 ft | 168 kts | 205° |
| 2026-05-07 00:24 | 42.49952 | -70.93977 | 2656 ft | 165 kts | 207° |
| 2026-05-07 00:24 | 42.48882 | -70.94497 | 2431 ft | 158 kts | 205° |
| 2026-05-07 00:24 | 42.47912 | -70.94965 | 2242 ft | 145 kts | 205° |
| 2026-05-07 00:25 | 42.46988 | -70.95414 | 2066 ft | 138 kts | 205° |
| 2026-05-07 00:25 | 42.46095 | -70.95850 | 1876 ft | 136 kts | 205° |
| 2026-05-07 00:25 | 42.45215 | -70.96278 | 1701 ft | 133 kts | 204° |
| 2026-05-07 00:25 | 42.44346 | -70.96700 | 1518 ft | 133 kts | 203° |
| 2026-05-07 00:26 | 42.43479 | -70.97121 | 1341 ft | 133 kts | 204° |
| 2026-05-07 00:26 | 42.42611 | -70.97543 | 1159 ft | 133 kts | 203° |
| 2026-05-07 00:26 | 42.41743 | -70.97964 | 964 ft | 134 kts | 204° |
| 2026-05-07 00:26 | 42.40868 | -70.98388 | 785 ft | 132 kts | 201° |
| 2026-05-07 00:27 | 42.40000 | -70.98808 | 623 ft | 132 kts | 201° |
| 2026-05-07 00:27 | 42.39133 | -70.99230 | 460 ft | 130 kts | 200° |
| 2026-05-07 00:27 | 42.38256 | -70.99654 | 237 ft | 133 kts | 202° |
| 2026-05-07 00:27 | 42.37392 | -71.00073 | 70 ft | 131 kts | 201° |
| 2026-05-07 00:28 | 42.36598 | -71.00464 | 27 ft | 108 kts | 200° |
| 2026-05-07 00:28 | 42.36051 | -71.00727 | 27 ft | 58 kts | 199° |
| 2026-05-07 00:28 | 42.35755 | -71.00871 | 25 ft | 38 kts | 200° |
| 2026-05-07 00:28 | 42.35542 | -71.00975 | 28 ft | 28 kts | 199° |
| 2026-05-07 00:29 | 42.35391 | -71.01064 | 27 ft | 20 kts | 233° |
| 2026-05-07 00:29 | 42.35414 | -71.01224 | 27 ft | 17 kts | 290° |